Terminal Aerodrome Forecast
Issued by NWS Greer, SC

Home | Current Version | Previous Version | Text Only | Print | Product List | Glossary On
Versions: 1 2 3 4 5 6 7 8 9 10 11 12 13 14 15 16 17 18
000
FTUS42 KGSP 230811 AAA
TAFAVL
TAF AMD
KAVL 230811Z 2308/2406 00000KT P6SM SKC
      TEMPO 2308/2312 3SM BR BKN003
     FM231300 32005KT P6SM VCSH BKN035
     FM231500 33009KT P6SM -SHRA BKN040
      TEMPO 2316/2320 3SM -TSRA BKN030CB
     FM232000 34014G22KT P6SM VCSH BKN040
     FM240000 34005KT P6SM SCT050=

USA.gov is the U.S. government's official web portal to all federal, state and local government web resources and services.